createdAt,value
2022-09-05T00:02:48.880Z,4.80
2022-09-05T00:06:16.318Z,5.40
2022-09-05T00:10:05.739Z,5.10
2022-09-05T00:13:32.882Z,5.30
2022-09-05T00:17:03.317Z,5.60
2022-09-05T00:24:37.399Z,5.60
2022-09-05T00:25:01.008Z,5.10
2022-09-05T00:29:16.251Z,4.90
2022-09-05T00:33:20.389Z,5.80
2022-09-05T00:36:54.744Z,4.80
2022-09-05T00:40:25.177Z,5.30
2022-09-05T00:43:49.106Z,5.20
2022-09-05T00:47:30.901Z,4.90
2022-09-05T00:51:17.444Z,4.90
2022-09-05T00:54:54.902Z,5.30
2022-09-05T00:58:42.518Z,4.90
2022-09-05T01:02:13.800Z,5.20
2022-09-05T01:05:51.979Z,5.00
2022-09-05T01:09:20.350Z,5.40
2022-09-05T01:12:52.758Z,5.50
2022-09-05T01:16:34.880Z,5.20
2022-09-05T01:20:19.710Z,5.30
2022-09-05T01:24:11.110Z,5.20
2022-09-05T01:29:12.938Z,5.50
2022-09-05T01:31:47.097Z,5.30
2022-09-05T01:35:25.606Z,5.20
2022-09-05T01:40:10.616Z,5.60
2022-09-05T01:42:49.225Z,5.70
2022-09-05T01:46:34.214Z,6.10
2022-09-05T01:50:00.819Z,5.90
2022-09-05T01:53:44.962Z,5.00
2022-09-05T01:57:23.999Z,6.10
2022-09-05T02:00:58.681Z,5.90
2022-09-05T02:05:01.534Z,6.70
2022-09-05T02:08:34.474Z,7.00
2022-09-05T02:12:25.457Z,7.80
2022-09-05T02:15:58.976Z,8.60
2022-09-05T02:19:28.795Z,7.90
2022-09-05T02:23:00.971Z,8.00
2022-09-05T02:26:27.033Z,8.20
2022-09-05T02:29:58.924Z,8.50
2022-09-05T02:33:31.291Z,8.70
2022-09-05T02:37:08.771Z,7.60
2022-09-05T02:45:06.686Z,7.50
2022-09-05T02:45:16.500Z,8.50
2022-09-05T02:48:28.160Z,8.20
2022-09-05T02:57:28.266Z,8.30
2022-09-05T02:57:35.916Z,8.70
2022-09-05T03:00:08.890Z,8.90
2022-09-05T03:03:39.242Z,8.60
2022-09-05T03:07:26.085Z,8.20
2022-09-05T03:11:16.849Z,8.10
2022-09-05T03:14:54.981Z,8.10
2022-09-05T03:18:56.721Z,9.20
2022-09-05T03:22:36.203Z,9.40
2022-09-05T03:26:27.403Z,8.50
2022-09-05T03:30:16.503Z,8.50
2022-09-05T03:33:56.326Z,9.20
2022-09-05T03:38:03.404Z,9.30
2022-09-05T03:42:14.828Z,8.20
2022-09-05T03:45:47.709Z,8.60
2022-09-05T03:50:07.434Z,9.30
2022-09-05T03:57:23.793Z,8.60
2022-09-05T03:57:41.544Z,9.80
2022-09-05T04:02:40.323Z,9.50
2022-09-05T04:08:27.565Z,9.70
2022-09-05T04:09:11.077Z,10.40
2022-09-05T04:12:33.592Z,10.40
2022-09-05T04:19:40.368Z,11.10
2022-09-05T04:22:59.878Z,11.50
2022-09-05T04:26:56.726Z,11.30
2022-09-05T04:30:37.852Z,11.10
2022-09-05T04:34:09.499Z,10.90
2022-09-05T04:37:49.455Z,11.70
2022-09-05T04:41:13.571Z,11.90
2022-09-05T04:44:51.224Z,11.30
2022-09-05T04:48:22.175Z,11.00
2022-09-05T04:52:06.442Z,12.00
2022-09-05T04:55:37.419Z,11.40
2022-09-05T05:01:24.333Z,11.80
2022-09-05T05:06:12.588Z,10.90
2022-09-05T05:06:46.917Z,9.80
2022-09-05T05:10:25.576Z,11.40
2022-09-05T05:18:03.135Z,9.60
2022-09-05T05:18:37.734Z,9.80
2022-09-05T05:21:49.424Z,10.20
2022-09-05T05:25:12.212Z,9.80
2022-09-05T05:32:05.319Z,9.70
2022-09-05T05:35:29.901Z,9.70
2022-09-05T05:38:56.957Z,9.30
2022-09-05T05:42:22.436Z,10.50
2022-09-05T05:45:42.377Z,10.10
2022-09-05T05:49:17.168Z,8.40
2022-09-05T05:52:51.797Z,9.00
2022-09-05T05:56:20.258Z,8.40
2022-09-05T06:00:01.549Z,7.90
2022-09-05T06:03:37.125Z,7.80
2022-09-05T06:07:26.830Z,8.80
2022-09-05T06:14:55.253Z,8.40
2022-09-05T06:15:28.885Z,7.60
2022-09-05T06:19:21.133Z,7.80
2022-09-05T06:23:08.279Z,8.20
2022-09-05T06:27:06.298Z,6.80
2022-09-05T06:30:34.116Z,7.20
2022-09-05T06:34:33.232Z,7.10
2022-09-05T06:38:08.935Z,7.30
2022-09-05T06:42:28.684Z,6.80
2022-09-05T06:45:58.542Z,6.70
2022-09-05T06:49:32.379Z,6.60
2022-09-05T06:53:32.228Z,6.30
2022-09-05T06:57:03.789Z,6.10
2022-09-05T07:00:34.417Z,5.70
2022-09-05T07:05:23.968Z,5.70
2022-09-05T07:07:53.964Z,6.10
2022-09-05T07:11:34.031Z,5.50
2022-09-05T07:15:16.741Z,5.30
2022-09-05T07:19:03.153Z,5.40
2022-09-05T07:22:47.445Z,6.50
2022-09-05T07:26:10.764Z,5.20
2022-09-05T07:30:00.961Z,4.90
2022-09-05T07:33:28.233Z,4.80
2022-09-05T07:36:59.199Z,4.60
2022-09-05T07:40:50.161Z,4.20
2022-09-05T07:44:21.047Z,3.80
2022-09-05T07:48:11.487Z,4.00
2022-09-05T07:56:46.655Z,3.50
2022-09-05T07:57:01.706Z,4.10
2022-09-05T07:59:07.875Z,3.70
2022-09-05T08:02:27.699Z,4.10
2022-09-05T08:05:53.440Z,4.20
2022-09-05T08:10:05.416Z,4.30
2022-09-05T08:13:24.353Z,4.20
2022-09-05T08:16:46.948Z,4.20
2022-09-05T08:20:45.772Z,4.30
2022-09-05T08:24:20.847Z,4.50
2022-09-05T08:28:13.137Z,4.20
2022-09-05T08:31:51.960Z,4.20
2022-09-05T08:35:26.110Z,4.10
2022-09-05T08:38:46.367Z,3.50
2022-09-05T08:42:38.209Z,4.70
2022-09-05T08:46:46.479Z,3.80
2022-09-05T08:50:26.994Z,3.30
2022-09-05T08:54:02.846Z,3.30
2022-09-05T08:57:50.235Z,3.20
2022-09-05T09:02:14.651Z,3.30
2022-09-05T09:06:13.261Z,3.50
2022-09-05T09:09:41.980Z,3.80
2022-09-05T09:13:34.834Z,3.50
2022-09-05T09:17:17.755Z,3.40
2022-09-05T09:20:47.564Z,3.90
2022-09-05T09:24:39.325Z,3.60
2022-09-05T09:28:49.386Z,3.50
2022-09-05T09:32:17.194Z,3.40
2022-09-05T09:36:06.207Z,3.40
2022-09-05T09:39:46.925Z,3.40
2022-09-05T09:43:26.652Z,7.30
2022-09-05T09:46:50.227Z,4.20
2022-09-05T09:50:58.996Z,3.30
2022-09-05T09:54:59.150Z,8.40
2022-09-05T09:58:26.355Z,4.50
2022-09-05T10:03:27.022Z,9.60
2022-09-05T10:10:39.331Z,7.40
2022-09-05T10:10:52.207Z,5.40
2022-09-05T10:14:06.172Z,3.60
2022-09-05T10:18:04.982Z,3.40
2022-09-05T10:21:32.915Z,2.90
2022-09-05T10:25:20.324Z,3.10
2022-09-05T10:29:34.944Z,3.00
2022-09-05T10:35:08.969Z,2.90
2022-09-05T10:36:58.616Z,2.80
2022-09-05T10:40:23.570Z,3.10
2022-09-05T10:44:00.858Z,3.00
2022-09-05T10:48:12.913Z,2.70
2022-09-05T10:51:51.930Z,2.80
2022-09-05T10:55:35.886Z,2.60
2022-09-05T11:00:54.442Z,2.20
2022-09-05T11:02:47.507Z,2.50
2022-09-05T11:06:24.885Z,2.60
2022-09-05T11:10:02.196Z,2.30
2022-09-05T11:13:47.248Z,2.40
2022-09-05T11:17:31.831Z,2.40
2022-09-05T11:21:09.817Z,2.60
2022-09-05T11:24:42.859Z,2.50
2022-09-05T11:28:16.740Z,2.50
2022-09-05T11:34:34.182Z,4.00
2022-09-05T11:39:47.457Z,2.60
2022-09-05T11:40:31.658Z,2.50
2022-09-05T11:44:24.474Z,2.90
2022-09-05T11:48:07.553Z,2.50
2022-09-05T11:51:36.051Z,2.80
2022-09-05T11:55:21.019Z,3.20
2022-09-05T11:59:33.696Z,3.50
2022-09-05T12:03:05.480Z,3.10
2022-09-05T12:06:56.157Z,2.70
2022-09-05T12:10:48.316Z,2.90
2022-09-05T12:14:36.758Z,2.60
2022-09-05T12:19:06.248Z,3.00
2022-09-05T12:22:52.294Z,2.80
2022-09-05T12:27:41.874Z,2.50
2022-09-05T12:30:21.924Z,3.20
2022-09-05T12:36:06.558Z,2.60
2022-09-05T12:39:59.599Z,2.80
2022-09-05T12:41:46.169Z,2.60
2022-09-05T12:45:11.264Z,2.30
2022-09-05T12:49:07.592Z,2.70
2022-09-05T12:52:33.161Z,2.30
2022-09-05T12:56:18.480Z,2.60
2022-09-05T13:02:56.904Z,2.90
2022-09-05T13:03:30.441Z,2.50
2022-09-05T13:06:58.443Z,2.80
2022-09-05T13:13:43.024Z,2.60
2022-09-05T13:15:03.210Z,2.80
2022-09-05T13:18:16.218Z,2.40
2022-09-05T13:21:45.003Z,2.70
2022-09-05T13:25:10.820Z,2.70
2022-09-05T13:28:50.567Z,2.60
2022-09-05T13:37:55.827Z,2.50
2022-09-05T13:38:12.952Z,2.60
2022-09-05T13:40:15.345Z,4.30
2022-09-05T13:43:37.571Z,2.40
2022-09-05T13:50:52.258Z,2.60
2022-09-05T13:54:33.498Z,2.30
2022-09-05T13:58:08.095Z,2.50
2022-09-05T14:01:54.608Z,2.40
2022-09-05T14:05:34.483Z,2.50
2022-09-05T14:13:15.913Z,2.40
2022-09-05T14:16:54.284Z,2.60
2022-09-05T14:20:33.975Z,2.80
2022-09-05T14:24:15.183Z,2.50
2022-09-05T14:27:43.627Z,2.40
2022-09-05T14:37:34.310Z,2.60
2022-09-05T14:37:41.894Z,2.50
2022-09-05T14:38:51.116Z,2.60
2022-09-05T14:42:09.466Z,2.80
2022-09-05T14:45:19.289Z,2.30
2022-09-05T14:48:36.688Z,2.70
2022-09-05T14:51:43.182Z,2.70
2022-09-05T15:02:41.078Z,2.50
2022-09-05T15:02:58.391Z,2.50
2022-09-05T15:05:27.364Z,2.80
2022-09-05T15:11:18.224Z,3.00
2022-09-05T15:12:21.894Z,3.00
2022-09-05T15:15:44.546Z,2.60
2022-09-05T15:18:55.697Z,2.50
2022-09-05T15:22:36.708Z,2.60
2022-09-05T15:25:43.785Z,2.80
2022-09-05T15:28:49.144Z,2.60
2022-09-05T15:31:53.303Z,2.60
2022-09-05T15:35:16.504Z,2.60
2022-09-05T15:38:21.762Z,2.60
2022-09-05T15:41:28.352Z,2.90
2022-09-05T15:44:32.313Z,2.70
2022-09-05T15:47:45.261Z,2.80
2022-09-05T15:50:52.932Z,2.60
2022-09-05T15:53:57.537Z,2.70
2022-09-05T15:57:07.361Z,2.50
2022-09-05T16:00:12.719Z,2.60
2022-09-05T16:04:10.791Z,2.60
2022-09-05T16:10:41.441Z,2.60
2022-09-05T16:10:50.857Z,2.80
2022-09-05T16:13:52.114Z,2.80
2022-09-05T16:23:17.070Z,2.70
2022-09-05T16:23:31.627Z,3.10
2022-09-05T16:24:24.827Z,2.40
2022-09-05T16:27:53.470Z,3.20
2022-09-05T16:31:03.825Z,2.60
2022-09-05T16:34:11.997Z,27.50
2022-09-05T16:37:18.611Z,4.50
2022-09-05T16:40:25.850Z,3.00
2022-09-05T16:43:34.389Z,3.10
2022-09-05T16:46:45.770Z,2.70
2022-09-05T16:49:57.339Z,3.30
2022-09-05T16:53:30.355Z,3.00
2022-09-05T16:59:45.399Z,3.30
2022-09-05T17:03:04.338Z,3.40
2022-09-05T17:06:26.610Z,3.40
2022-09-05T17:12:39.935Z,3.10
2022-09-05T17:15:51.595Z,3.40
2022-09-05T17:18:58.832Z,3.40
2022-09-05T17:24:06.041Z,3.40
2022-09-05T17:29:34.477Z,3.10
2022-09-05T17:33:03.122Z,3.40
2022-09-05T17:36:07.867Z,3.10
2022-09-05T17:39:22.397Z,3.30
2022-09-05T17:42:47.588Z,3.40
2022-09-05T17:46:00.090Z,3.60
2022-09-05T17:49:19.900Z,3.40
2022-09-05T17:52:23.148Z,3.50
2022-09-05T17:55:48.779Z,3.70
2022-09-05T17:59:12.517Z,3.40
2022-09-05T18:02:14.020Z,2.90
2022-09-05T18:05:54.091Z,3.10
2022-09-05T18:08:55.735Z,3.10
2022-09-05T18:13:11.754Z,3.50
2022-09-05T18:15:47.892Z,3.40
2022-09-05T18:19:32.440Z,3.50
2022-09-05T18:22:25.438Z,3.20
2022-09-05T18:25:33.580Z,3.40
2022-09-05T18:28:59.971Z,3.40
2022-09-05T18:32:08.272Z,3.50
2022-09-05T18:35:36.705Z,2.90
2022-09-05T18:38:51.288Z,3.30
2022-09-05T18:42:25.570Z,3.60
2022-09-05T18:45:28.610Z,3.20
2022-09-05T18:48:43.818Z,3.20
2022-09-05T18:52:08.487Z,3.20
2022-09-05T18:56:12.219Z,3.20
2022-09-05T18:59:17.819Z,3.40
2022-09-05T19:02:49.891Z,3.20
2022-09-05T19:06:35.966Z,3.10
2022-09-05T19:09:28.484Z,3.80
2022-09-05T19:12:38.833Z,3.30
2022-09-05T19:15:52.318Z,3.50
2022-09-05T19:19:18.870Z,4.30
2022-09-05T19:23:08.713Z,4.20
2022-09-05T19:25:45.762Z,4.10
2022-09-05T19:35:33.300Z,4.20
2022-09-05T19:38:16.570Z,4.40
2022-09-05T19:47:40.245Z,3.90
2022-09-05T19:47:50.101Z,3.90
2022-09-05T19:51:28.232Z,4.00
2022-09-05T19:54:29.736Z,4.30
2022-09-05T19:57:31.412Z,4.50
2022-09-05T20:00:35.832Z,4.60
2022-09-05T20:03:42.000Z,4.50
2022-09-05T20:06:49.018Z,4.70
2022-09-05T20:09:52.991Z,4.10
2022-09-05T20:12:58.378Z,4.30
2022-09-05T20:16:06.326Z,4.70
2022-09-05T20:19:35.294Z,4.70
2022-09-05T20:22:48.790Z,5.40
2022-09-05T20:25:56.496Z,4.50
2022-09-05T20:29:04.992Z,5.50
2022-09-05T20:32:07.007Z,4.70
2022-09-05T20:39:32.726Z,5.10
2022-09-05T20:43:22.291Z,4.90
2022-09-05T20:43:35.171Z,5.30
2022-09-05T20:46:44.967Z,5.00
2022-09-05T20:54:13.959Z,4.40
2022-09-05T20:54:26.003Z,4.80
2022-09-05T20:57:22.672Z,4.40
2022-09-05T21:00:28.878Z,4.70
2022-09-05T21:03:40.231Z,4.50
2022-09-05T21:06:45.219Z,4.70
2022-09-05T21:09:57.542Z,4.60
2022-09-05T21:16:01.468Z,4.30
2022-09-05T21:19:03.730Z,4.30
2022-09-05T21:22:19.980Z,4.60
2022-09-05T21:25:36.614Z,4.80
2022-09-05T21:29:03.451Z,4.50
2022-09-05T21:32:12.569Z,4.20
2022-09-05T21:35:34.208Z,4.70
2022-09-05T21:41:42.343Z,4.10
2022-09-05T21:47:35.346Z,4.30
2022-09-05T21:48:15.953Z,4.80
2022-09-05T21:51:25.727Z,4.00
2022-09-05T21:59:16.405Z,4.90
2022-09-05T21:59:16.779Z,4.30
2022-09-05T22:01:11.468Z,4.60
2022-09-05T22:04:13.141Z,4.20
2022-09-05T22:07:32.452Z,4.60
2022-09-05T22:10:51.688Z,4.10
2022-09-05T22:13:57.768Z,4.30
2022-09-05T22:17:00.811Z,3.80
2022-09-05T22:20:05.440Z,3.70
2022-09-05T22:23:07.217Z,4.30
2022-09-05T22:26:08.798Z,4.00
2022-09-05T22:29:11.813Z,4.30
2022-09-05T22:32:13.616Z,3.90
2022-09-05T22:35:27.895Z,4.20
2022-09-05T22:38:30.505Z,4.10
2022-09-05T22:41:32.114Z,4.00
2022-09-05T22:44:33.653Z,3.90
2022-09-05T22:47:35.268Z,4.10
2022-09-05T22:50:37.712Z,3.60
2022-09-05T22:53:39.225Z,3.80
2022-09-05T22:56:40.884Z,3.70
2022-09-05T22:59:42.430Z,4.00
2022-09-05T23:02:45.396Z,3.90
2022-09-05T23:05:49.487Z,3.60
2022-09-05T23:08:51.148Z,4.20
2022-09-05T23:11:52.786Z,3.80
2022-09-05T23:14:54.434Z,3.30
2022-09-05T23:17:58.270Z,3.30
2022-09-05T23:21:01.440Z,3.70
2022-09-05T23:24:03.156Z,3.30
2022-09-05T23:27:04.745Z,3.20
2022-09-05T23:30:07.518Z,3.50
2022-09-05T23:33:09.658Z,3.40
2022-09-05T23:36:15.679Z,3.60
2022-09-05T23:39:17.287Z,3.60
2022-09-05T23:42:18.774Z,3.30
2022-09-05T23:45:22.050Z,3.10
2022-09-05T23:48:23.914Z,3.00
2022-09-05T23:51:25.555Z,3.90
2022-09-05T23:54:27.096Z,2.90
2022-09-05T23:57:28.709Z,3.10
